sensor_id;sensor_type;location;lat;lon;timestamp;P1;durP1;ratioP1;P2;durP2;ratioP2
20177;SDS011;10248;51.218;20.866;2023-06-22T10:44:38;10.45;;;10.05;;
20177;SDS011;10248;51.218;20.866;2023-06-22T10:48:04;10.40;;;10.00;;
20177;SDS011;10248;51.218;20.866;2023-06-22T10:51:31;10.07;;;9.68;;
20177;SDS011;10248;51.218;20.866;2023-06-22T10:54:57;9.30;;;8.90;;
20177;SDS011;10248;51.218;20.866;2023-06-22T10:58:24;9.40;;;9.00;;
20177;SDS011;10248;51.218;20.866;2023-06-22T11:01:53;10.20;;;9.80;;
20177;SDS011;10248;51.218;20.866;2023-06-22T11:05:19;10.50;;;10.10;;
20177;SDS011;10248;51.218;20.866;2023-06-22T11:08:46;11.00;;;10.60;;
20177;SDS011;10248;51.218;20.866;2023-06-22T11:12:12;10.60;;;10.20;;
20177;SDS011;10248;51.218;20.866;2023-06-22T11:15:38;10.30;;;9.90;;
20177;SDS011;10248;51.218;20.866;2023-06-22T11:19:06;10.23;;;9.82;;
20177;SDS011;10248;51.218;20.866;2023-06-22T11:22:37;10.10;;;9.70;;
20177;SDS011;10248;51.218;20.866;2023-06-22T11:26:04;10.68;;;10.27;;
20177;SDS011;10248;51.218;20.866;2023-06-22T11:29:30;10.70;;;10.30;;
20177;SDS011;10248;51.218;20.866;2023-06-22T11:32:58;10.13;;;9.73;;
20177;SDS011;10248;51.218;20.866;2023-06-22T11:36:29;10.73;;;10.32;;
20177;SDS011;10248;51.218;20.866;2023-06-22T11:39:55;10.50;;;10.10;;
20177;SDS011;10248;51.218;20.866;2023-06-22T11:43:22;10.02;;;9.63;;
20177;SDS011;10248;51.218;20.866;2023-06-22T11:46:49;10.95;;;10.55;;
20177;SDS011;10248;51.218;20.866;2023-06-22T11:50:15;10.73;;;10.32;;
20177;SDS011;10248;51.218;20.866;2023-06-22T11:53:43;10.02;;;9.63;;
20177;SDS011;10248;51.218;20.866;2023-06-22T11:57:09;10.50;;;10.10;;
20177;SDS011;10248;51.218;20.866;2023-06-22T12:00:36;10.20;;;9.80;;
20177;SDS011;10248;51.218;20.866;2023-06-22T12:04:03;10.20;;;9.80;;
20177;SDS011;10248;51.218;20.866;2023-06-22T12:07:30;10.02;;;9.63;;
20177;SDS011;10248;51.218;20.866;2023-06-22T12:11:00;10.18;;;9.77;;
20177;SDS011;10248;51.218;20.866;2023-06-22T12:14:27;10.40;;;10.00;;
20177;SDS011;10248;51.218;20.866;2023-06-22T12:17:54;10.50;;;10.10;;
20177;SDS011;10248;51.218;20.866;2023-06-22T12:21:21;10.60;;;10.20;;
20177;SDS011;10248;51.218;20.866;2023-06-22T12:24:47;10.05;;;9.65;;
20177;SDS011;10248;51.218;20.866;2023-06-22T12:28:15;10.35;;;9.95;;
20177;SDS011;10248;51.218;20.866;2023-06-22T12:31:41;10.95;;;10.55;;
20177;SDS011;10248;51.218;20.866;2023-06-22T12:35:08;11.18;;;10.77;;
20177;SDS011;10248;51.218;20.866;2023-06-22T12:38:35;10.88;;;10.48;;
20177;SDS011;10248;51.218;20.866;2023-06-22T12:42:01;10.77;;;10.38;;
20177;SDS011;10248;51.218;20.866;2023-06-22T12:45:31;10.75;;;10.35;;
20177;SDS011;10248;51.218;20.866;2023-06-22T12:49:04;11.05;;;10.65;;
20177;SDS011;10248;51.218;20.866;2023-06-22T12:52:32;10.52;;;10.13;;
20177;SDS011;10248;51.218;20.866;2023-06-22T12:55:58;10.65;;;10.25;;
20177;SDS011;10248;51.218;20.866;2023-06-22T12:59:25;10.95;;;10.55;;
20177;SDS011;10248;51.218;20.866;2023-06-22T13:02:52;10.52;;;10.13;;
20177;SDS011;10248;51.218;20.866;2023-06-22T13:06:20;11.00;;;10.60;;
20177;SDS011;10248;51.218;20.866;2023-06-22T13:09:49;10.43;;;10.02;;
20177;SDS011;10248;51.218;20.866;2023-06-22T13:13:16;11.40;;;11.00;;
20177;SDS011;10248;51.218;20.866;2023-06-22T13:16:43;10.30;;;9.90;;
20177;SDS011;10248;51.218;20.866;2023-06-22T13:20:11;10.65;;;10.25;;
20177;SDS011;10248;51.218;20.866;2023-06-22T13:23:38;11.77;;;11.38;;
20177;SDS011;10248;51.218;20.866;2023-06-22T13:27:04;12.35;;;11.88;;
20177;SDS011;10248;51.218;20.866;2023-06-22T13:30:35;13.48;;;12.98;;
20177;SDS011;10248;51.218;20.866;2023-06-22T13:34:01;12.93;;;12.43;;
20177;SDS011;10248;51.218;20.866;2023-06-22T13:37:29;11.70;;;11.30;;
20177;SDS011;10248;51.218;20.866;2023-06-22T13:40:57;12.18;;;11.75;;
20177;SDS011;10248;51.218;20.866;2023-06-22T13:44:24;11.80;;;11.40;;
20177;SDS011;10248;51.218;20.866;2023-06-22T13:47:50;11.55;;;11.15;;
20177;SDS011;10248;51.218;20.866;2023-06-22T13:51:20;12.10;;;11.68;;
20177;SDS011;10248;51.218;20.866;2023-06-22T13:54:48;12.15;;;11.75;;
20177;SDS011;10248;51.218;20.866;2023-06-22T13:58:17;11.40;;;11.00;;
20177;SDS011;10248;51.218;20.866;2023-06-22T14:01:43;10.75;;;10.35;;
20177;SDS011;10248;51.218;20.866;2023-06-22T14:05:10;10.82;;;10.43;;
20177;SDS011;10248;51.218;20.866;2023-06-22T14:08:37;10.68;;;10.27;;
20177;SDS011;10248;51.218;20.866;2023-06-22T14:12:05;11.93;;;11.52;;
20177;SDS011;10248;51.218;20.866;2023-06-22T14:15:33;10.40;;;10.00;;
20177;SDS011;10248;51.218;20.866;2023-06-22T14:18:59;10.88;;;10.48;;
20177;SDS011;10248;51.218;20.866;2023-06-22T14:22:26;10.88;;;10.48;;
20177;SDS011;10248;51.218;20.866;2023-06-22T14:25:52;10.95;;;10.55;;
20177;SDS011;10248;51.218;20.866;2023-06-22T14:29:20;11.30;;;10.90;;
20177;SDS011;10248;51.218;20.866;2023-06-22T14:32:46;11.02;;;10.63;;
20177;SDS011;10248;51.218;20.866;2023-06-22T14:36:13;10.48;;;10.07;;
20177;SDS011;10248;51.218;20.866;2023-06-22T14:39:40;10.25;;;9.85;;
20177;SDS011;10248;51.218;20.866;2023-06-22T14:43:27;10.88;;;10.48;;
20177;SDS011;10248;51.218;20.866;2023-06-22T14:46:55;11.00;;;10.60;;
20177;SDS011;10248;51.218;20.866;2023-06-22T14:50:23;10.60;;;10.20;;
20177;SDS011;10248;51.218;20.866;2023-06-22T14:53:52;11.48;;;11.07;;
20177;SDS011;10248;51.218;20.866;2023-06-22T14:57:18;11.13;;;10.65;;
20177;SDS011;10248;51.218;20.866;2023-06-22T15:00:46;10.70;;;10.30;;
20177;SDS011;10248;51.218;20.866;2023-06-22T15:04:15;10.90;;;10.50;;
20177;SDS011;10248;51.218;20.866;2023-06-22T15:07:46;11.25;;;10.85;;
20177;SDS011;10248;51.218;20.866;2023-06-22T15:11:19;11.10;;;10.70;;
20177;SDS011;10248;51.218;20.866;2023-06-22T15:14:47;11.10;;;10.70;;
20177;SDS011;10248;51.218;20.866;2023-06-22T15:18:26;11.63;;;11.23;;
20177;SDS011;10248;51.218;20.866;2023-06-22T15:22:05;11.88;;;11.48;;
20177;SDS011;10248;51.218;20.866;2023-06-22T15:25:41;11.43;;;11.02;;
20177;SDS011;10248;51.218;20.866;2023-06-22T15:29:26;11.18;;;10.77;;
20177;SDS011;10248;51.218;20.866;2023-06-22T15:44:31;11.10;;;10.70;;
20177;SDS011;10248;51.218;20.866;2023-06-22T15:51:44;11.30;;;10.90;;
20177;SDS011;10248;51.218;20.866;2023-06-22T15:55:20;11.73;;;11.32;;
20177;SDS011;10248;51.218;20.866;2023-06-22T15:58:56;11.20;;;10.80;;
20177;SDS011;10248;51.218;20.866;2023-06-22T16:07:29;11.00;;;10.60;;
20177;SDS011;10248;51.218;20.866;2023-06-22T16:11:11;10.60;;;10.20;;
20177;SDS011;10248;51.218;20.866;2023-06-22T16:14:38;11.30;;;10.90;;
20177;SDS011;10248;51.218;20.866;2023-06-22T16:18:09;10.57;;;10.18;;
20177;SDS011;10248;51.218;20.866;2023-06-22T16:21:37;10.52;;;10.13;;
20177;SDS011;10248;51.218;20.866;2023-06-22T16:25:07;11.20;;;10.80;;
20177;SDS011;10248;51.218;20.866;2023-06-22T16:32:33;10.15;;;9.75;;
20177;SDS011;10248;51.218;20.866;2023-06-22T16:36:02;10.75;;;10.35;;
20177;SDS011;10248;51.218;20.866;2023-06-22T16:39:43;11.02;;;10.63;;
20177;SDS011;10248;51.218;20.866;2023-06-22T16:43:11;11.15;;;10.75;;
20177;SDS011;10248;51.218;20.866;2023-06-22T16:46:45;11.02;;;10.63;;
20177;SDS011;10248;51.218;20.866;2023-06-22T16:50:13;11.18;;;10.77;;
20177;SDS011;10248;51.218;20.866;2023-06-22T16:53:40;10.75;;;10.35;;
20177;SDS011;10248;51.218;20.866;2023-06-22T16:57:25;10.80;;;10.40;;
20177;SDS011;10248;51.218;20.866;2023-06-22T17:00:56;10.85;;;10.45;;
20177;SDS011;10248;51.218;20.866;2023-06-22T17:04:38;15.88;;;15.32;;
20177;SDS011;10248;51.218;20.866;2023-06-22T17:30:48;13.05;;;12.55;;
20177;SDS011;10248;51.218;20.866;2023-06-22T17:46:08;11.15;;;10.75;;
20177;SDS011;10248;51.218;20.866;2023-06-22T17:49:35;11.07;;;10.68;;
20177;SDS011;10248;51.218;20.866;2023-06-22T17:53:02;10.50;;;10.10;;
20177;SDS011;10248;51.218;20.866;2023-06-22T17:56:29;9.70;;;9.30;;
20177;SDS011;10248;51.218;20.866;2023-06-22T17:59:58;9.95;;;9.55;;
20177;SDS011;10248;51.218;20.866;2023-06-22T18:03:26;10.07;;;9.68;;
20177;SDS011;10248;51.218;20.866;2023-06-22T18:06:53;10.23;;;9.82;;
20177;SDS011;10248;51.218;20.866;2023-06-22T18:10:21;10.43;;;10.02;;
20177;SDS011;10248;51.218;20.866;2023-06-22T18:13:53;10.93;;;10.52;;
20177;SDS011;10248;51.218;20.866;2023-06-22T18:17:20;11.27;;;10.88;;
20177;SDS011;10248;51.218;20.866;2023-06-22T18:20:48;10.90;;;10.50;;
20177;SDS011;10248;51.218;20.866;2023-06-22T18:24:16;10.77;;;10.38;;
20177;SDS011;10248;51.218;20.866;2023-06-22T18:27:45;10.50;;;10.10;;
20177;SDS011;10248;51.218;20.866;2023-06-22T18:31:13;9.75;;;9.35;;
20177;SDS011;10248;51.218;20.866;2023-06-22T18:34:47;10.27;;;9.88;;
20177;SDS011;10248;51.218;20.866;2023-06-22T18:38:15;10.25;;;9.85;;
20177;SDS011;10248;51.218;20.866;2023-06-22T18:41:42;9.85;;;9.45;;
20177;SDS011;10248;51.218;20.866;2023-06-22T18:45:24;9.75;;;9.35;;
20177;SDS011;10248;51.218;20.866;2023-06-22T18:49:09;10.05;;;9.65;;
20177;SDS011;10248;51.218;20.866;2023-06-22T18:52:37;10.40;;;10.00;;
20177;SDS011;10248;51.218;20.866;2023-06-22T18:56:12;10.35;;;9.95;;
20177;SDS011;10248;51.218;20.866;2023-06-22T18:59:47;9.32;;;8.93;;
20177;SDS011;10248;51.218;20.866;2023-06-22T19:03:28;9.82;;;9.43;;
20177;SDS011;10248;51.218;20.866;2023-06-22T19:07:04;9.73;;;9.32;;
20177;SDS011;10248;51.218;20.866;2023-06-22T19:10:46;9.73;;;9.32;;
20177;SDS011;10248;51.218;20.866;2023-06-22T19:14:17;9.77;;;9.38;;
20177;SDS011;10248;51.218;20.866;2023-06-22T19:17:45;10.13;;;9.73;;
20177;SDS011;10248;51.218;20.866;2023-06-22T19:21:20;9.65;;;9.25;;
20177;SDS011;10248;51.218;20.866;2023-06-22T19:24:47;9.75;;;9.35;;
20177;SDS011;10248;51.218;20.866;2023-06-22T19:28:17;9.73;;;9.32;;
20177;SDS011;10248;51.218;20.866;2023-06-22T19:50:35;9.57;;;9.18;;
20177;SDS011;10248;51.218;20.866;2023-06-22T20:01:42;9.50;;;9.10;;
20177;SDS011;10248;51.218;20.866;2023-06-22T20:05:11;9.40;;;9.00;;
20177;SDS011;10248;51.218;20.866;2023-06-22T20:08:45;8.93;;;8.52;;
20177;SDS011;10248;51.218;20.866;2023-06-22T20:12:26;9.10;;;8.70;;
20177;SDS011;10248;51.218;20.866;2023-06-22T20:30:38;8.38;;;8.07;;
20177;SDS011;10248;51.218;20.866;2023-06-22T20:34:20;8.23;;;7.93;;
20177;SDS011;10248;51.218;20.866;2023-06-22T20:37:55;8.68;;;8.35;;
20177;SDS011;10248;51.218;20.866;2023-06-22T20:41:27;8.52;;;8.23;;
20177;SDS011;10248;51.218;20.866;2023-06-22T20:44:59;8.43;;;8.13;;
20177;SDS011;10248;51.218;20.866;2023-06-22T20:48:45;8.90;;;8.50;;
20177;SDS011;10248;51.218;20.866;2023-06-22T20:56:08;8.70;;;8.40;;
20177;SDS011;10248;51.218;20.866;2023-06-22T21:07:42;8.55;;;8.25;;
20177;SDS011;10248;51.218;20.866;2023-06-22T21:14:49;8.38;;;8.07;;
20177;SDS011;10248;51.218;20.866;2023-06-22T21:18:47;8.75;;;8.40;;
20177;SDS011;10248;51.218;20.866;2023-06-22T21:26:12;8.27;;;7.97;;
20177;SDS011;10248;51.218;20.866;2023-06-22T21:37:11;8.57;;;8.27;;
20177;SDS011;10248;51.218;20.866;2023-06-22T21:48:12;8.10;;;7.80;;
20177;SDS011;10248;51.218;20.866;2023-06-22T21:59:29;8.35;;;8.05;;
20177;SDS011;10248;51.218;20.866;2023-06-22T22:03:11;8.25;;;7.95;;
20177;SDS011;10248;51.218;20.866;2023-06-22T22:14:51;8.25;;;7.95;;
20177;SDS011;10248;51.218;20.866;2023-06-22T23:01:06;8.00;;;7.70;;
20177;SDS011;10248;51.218;20.866;2023-06-22T23:25:40;7.60;;;7.30;;
20177;SDS011;10248;51.218;20.866;2023-06-22T23:33:06;8.00;;;7.70;;
20177;SDS011;10248;51.218;20.866;2023-06-22T23:36:44;7.50;;;7.20;;
